createdAt,value
2023-01-18T01:30:12.330Z,49.20
2023-01-18T01:32:47.448Z,41.50
2023-01-18T01:36:05.738Z,43.50
2023-01-18T01:43:18.240Z,40.60
2023-01-18T01:45:52.515Z,39.00
2023-01-18T01:48:39.763Z,42.00
2023-01-18T01:51:36.617Z,34.40
2023-01-18T01:54:23.963Z,42.60
2023-01-18T01:56:56.985Z,40.40
2023-01-18T02:02:16.638Z,37.90
2023-01-18T02:04:57.761Z,37.00
2023-01-18T02:07:34.428Z,41.00
2023-01-18T02:10:07.446Z,36.60
2023-01-18T02:12:50.301Z,37.80
2023-01-18T02:15:47.148Z,34.50
2023-01-18T02:18:44.314Z,39.80
2023-01-18T02:21:18.439Z,38.80
2023-01-18T02:24:19.274Z,37.70
2023-01-18T02:27:10.778Z,35.50
2023-01-18T02:30:01.565Z,36.50
2023-01-18T02:33:10.740Z,34.10
2023-01-18T02:36:12.544Z,31.60
2023-01-18T02:39:06.578Z,31.70
2023-01-18T02:42:14.913Z,35.80
2023-01-18T02:45:12.149Z,33.40
2023-01-18T02:48:25.505Z,33.40
2023-01-18T02:54:40.926Z,29.90
2023-01-18T02:57:55.883Z,27.40
2023-01-18T03:00:45.811Z,29.40
2023-01-18T03:03:25.007Z,30.30
2023-01-18T03:06:09.585Z,30.30
2023-01-18T03:09:14.310Z,29.10
2023-01-18T03:15:13.978Z,26.60
2023-01-18T03:17:57.029Z,28.60
2023-01-18T03:20:47.975Z,28.80
2023-01-18T03:23:41.427Z,29.20
2023-01-18T03:26:14.931Z,27.80
2023-01-18T03:29:13.474Z,28.90
2023-01-18T03:32:10.583Z,29.40
2023-01-18T03:34:51.238Z,25.90
2023-01-18T03:37:44.754Z,29.20
2023-01-18T03:40:27.995Z,30.30
2023-01-18T03:43:14.844Z,27.00
2023-01-18T03:45:53.295Z,27.50
2023-01-18T03:48:27.120Z,28.80
2023-01-18T03:51:15.040Z,29.50
2023-01-18T03:53:56.533Z,26.20
2023-01-18T03:56:41.095Z,31.40
2023-01-18T03:59:09.010Z,31.40
2023-01-18T04:01:36.812Z,29.80
2023-01-18T04:04:04.242Z,29.40
2023-01-18T04:06:33.115Z,30.20
2023-01-18T04:09:18.870Z,28.80
2023-01-18T04:11:48.434Z,28.60
2023-01-18T04:23:27.902Z,30.00
2023-01-18T04:25:58.563Z,28.10
2023-01-18T04:28:36.934Z,28.60
2023-01-18T04:31:28.818Z,33.40
2023-01-18T04:34:04.168Z,31.00
2023-01-18T04:36:39.524Z,28.80
2023-01-18T04:39:32.459Z,29.60
2023-01-18T04:42:11.438Z,33.00
2023-01-18T04:45:39.234Z,28.80
2023-01-18T04:48:41.369Z,27.30
2023-01-18T04:51:16.496Z,28.80
2023-01-18T04:59:56.091Z,26.30
2023-01-18T05:02:28.617Z,27.40
2023-01-18T05:05:00.710Z,25.80
2023-01-18T05:07:32.054Z,29.10
2023-01-18T05:10:05.825Z,30.00
2023-01-18T05:12:36.611Z,29.10
2023-01-18T05:15:09.540Z,30.60
2023-01-18T05:17:40.424Z,26.70
2023-01-18T05:20:13.922Z,27.40
2023-01-18T05:22:44.922Z,29.40
2023-01-18T05:25:16.793Z,27.10
2023-01-18T05:27:50.281Z,27.10
2023-01-18T05:30:22.370Z,25.90
2023-01-18T05:33:48.381Z,28.10
2023-01-18T05:41:49.217Z,29.00
2023-01-18T05:45:13.137Z,27.80
2023-01-18T06:00:55.635Z,26.20
2023-01-18T06:07:59.524Z,23.60
2023-01-18T06:11:08.857Z,21.80
2023-01-18T06:13:55.784Z,26.20
2023-01-18T06:16:38.445Z,23.50
2023-01-18T06:19:20.475Z,24.90
2023-01-18T06:22:14.831Z,20.40
2023-01-18T06:50:37.427Z,23.20
2023-01-18T06:50:39.010Z,18.60
2023-01-18T06:51:32.811Z,22.80
2023-01-18T06:53:09.013Z,16.60
2023-01-18T07:08:56.064Z,14.80
2023-01-18T07:36:31.189Z,14.50
2023-01-18T07:51:39.940Z,9.80
2023-01-18T07:54:09.153Z,9.40
2023-01-18T07:56:39.545Z,9.10
2023-01-18T07:59:09.450Z,8.90
2023-01-18T08:01:45.363Z,11.20
2023-01-18T08:04:15.862Z,9.00
2023-01-18T08:07:20.122Z,9.00
2023-01-18T08:10:47.732Z,8.70
2023-01-18T08:13:21.745Z,7.90
2023-01-18T08:15:54.289Z,8.40
2023-01-18T08:18:31.596Z,9.30
2023-01-18T08:21:05.250Z,7.70
2023-01-18T08:41:22.616Z,5.60
2023-01-18T09:22:28.842Z,3.70
2023-01-18T09:25:22.863Z,4.20
2023-01-18T09:27:51.944Z,4.70
2023-01-18T09:30:20.660Z,4.20
2023-01-18T09:32:49.099Z,4.40
2023-01-18T09:35:18.492Z,4.20
2023-01-18T09:37:52.851Z,4.00
2023-01-18T09:40:56.035Z,3.40
2023-01-18T09:43:34.564Z,6.20
2023-01-18T09:46:36.955Z,4.90
2023-01-18T09:49:18.235Z,3.30
2023-01-18T09:51:57.241Z,3.70
2023-01-18T09:55:30.840Z,4.30
2023-01-18T09:58:18.573Z,4.10
2023-01-18T10:00:51.992Z,4.20
2023-01-18T10:03:42.653Z,6.80
2023-01-18T10:06:47.218Z,4.80
2023-01-18T10:10:03.544Z,4.30
2023-01-18T10:12:58.537Z,3.50
2023-01-18T10:22:08.737Z,4.10
2023-01-18T10:25:17.128Z,4.60
2023-01-18T10:28:25.799Z,5.80
2023-01-18T10:31:30.492Z,6.90
2023-01-18T10:34:03.133Z,5.10
2023-01-18T10:36:42.064Z,4.60
2023-01-18T10:39:35.078Z,4.60
2023-01-18T10:42:07.345Z,4.80
2023-01-18T10:44:36.070Z,4.00
2023-01-18T10:47:04.565Z,6.30
2023-01-18T10:49:35.103Z,5.00
2023-01-18T10:52:27.396Z,5.50
2023-01-18T10:55:02.584Z,5.00
2023-01-18T10:57:52.277Z,5.90
2023-01-18T11:00:31.017Z,6.60
2023-01-18T11:03:02.716Z,6.00
2023-01-18T11:05:39.442Z,6.20
2023-01-18T11:08:18.959Z,6.00
2023-01-18T11:11:02.822Z,5.20
2023-01-18T11:13:40.616Z,7.80
2023-01-18T11:16:17.953Z,6.30
2023-01-18T11:18:57.173Z,6.50
2023-01-18T11:21:31.939Z,7.50
2023-01-18T11:24:07.991Z,7.10
2023-01-18T11:26:52.657Z,6.20
2023-01-18T11:29:28.397Z,6.50
2023-01-18T11:32:02.495Z,6.50
2023-01-18T11:34:44.139Z,7.80
2023-01-18T11:37:41.631Z,5.80
2023-01-18T11:40:19.314Z,7.60
2023-01-18T11:42:50.891Z,7.40
2023-01-18T11:45:24.887Z,6.70
2023-01-18T11:48:15.532Z,5.80
2023-01-18T11:53:33.978Z,6.30
2023-01-18T11:56:07.046Z,6.40
2023-01-18T11:58:36.359Z,5.30
2023-01-18T12:01:10.994Z,4.70
2023-01-18T12:03:56.590Z,4.40
2023-01-18T12:06:36.783Z,4.50
2023-01-18T12:09:15.073Z,5.80
2023-01-18T12:11:52.951Z,4.80
2023-01-18T12:14:44.489Z,4.60
2023-01-18T12:17:34.625Z,4.50
2023-01-18T12:20:12.406Z,5.80
2023-01-18T12:23:01.026Z,5.70
2023-01-18T12:26:03.117Z,5.30
2023-01-18T12:28:47.516Z,3.60
2023-01-18T12:31:50.467Z,4.50
2023-01-18T12:34:26.013Z,4.20
2023-01-18T12:37:03.422Z,4.80
2023-01-18T12:39:50.440Z,4.90
2023-01-18T12:42:26.194Z,4.70
2023-01-18T12:45:13.164Z,5.10
2023-01-18T12:47:48.565Z,3.80
2023-01-18T12:50:31.428Z,4.40
2023-01-18T12:53:06.550Z,5.30
2023-01-18T12:55:40.319Z,4.60
2023-01-18T12:58:22.765Z,4.20
2023-01-18T13:00:59.726Z,8.30
2023-01-18T13:03:41.624Z,5.80
2023-01-18T13:06:11.717Z,11.60
2023-01-18T13:08:44.700Z,6.00
2023-01-18T13:11:20.018Z,5.40
2023-01-18T13:14:24.216Z,6.00
2023-01-18T13:17:11.145Z,6.40
2023-01-18T13:19:44.768Z,7.40
2023-01-18T13:22:45.934Z,6.30
2023-01-18T13:25:20.732Z,6.70
2023-01-18T13:28:05.950Z,7.60
2023-01-18T13:30:49.858Z,6.80
2023-01-18T13:33:24.324Z,6.90
2023-01-18T13:36:12.022Z,8.30
2023-01-18T13:38:49.366Z,7.60
2023-01-18T13:41:25.166Z,9.00
2023-01-18T13:44:01.728Z,8.10
2023-01-18T13:46:35.571Z,7.60
2023-01-18T13:49:38.597Z,7.90
2023-01-18T13:52:34.223Z,8.40
2023-01-18T13:55:23.309Z,7.30
2023-01-18T13:57:57.134Z,7.30
2023-01-18T14:00:27.858Z,8.30
2023-01-18T14:03:18.344Z,9.90
2023-01-18T14:08:29.419Z,8.60
2023-01-18T14:11:25.174Z,9.00
2023-01-18T14:18:29.081Z,8.90
2023-01-18T14:21:28.534Z,9.20
2023-01-18T14:24:09.480Z,8.30
2023-01-18T14:26:41.574Z,7.70
2023-01-18T14:29:19.022Z,6.90
2023-01-18T14:31:53.403Z,7.30
2023-01-18T14:34:31.143Z,7.80
2023-01-18T14:37:00.141Z,9.50
2023-01-18T14:39:30.437Z,10.10
2023-01-18T14:44:56.936Z,8.20
2023-01-18T14:47:32.790Z,10.40
2023-01-18T14:50:05.343Z,8.80
2023-01-18T15:27:27.126Z,14.90
2023-01-18T15:30:00.279Z,14.20
2023-01-18T15:32:39.963Z,14.10
2023-01-18T15:38:09.240Z,14.80
2023-01-18T15:40:59.468Z,16.30
2023-01-18T15:43:42.129Z,16.10
2023-01-18T15:49:55.327Z,19.80
2023-01-18T15:53:07.425Z,14.30
2023-01-18T15:55:48.707Z,13.80
2023-01-18T15:59:15.557Z,13.00
2023-01-18T16:05:32.977Z,16.70
2023-01-18T16:08:25.564Z,14.90
2023-01-18T16:11:32.736Z,14.00
2023-01-18T16:14:26.754Z,14.70
2023-01-18T16:17:03.246Z,14.70
2023-01-18T16:19:46.362Z,17.30
2023-01-18T16:22:37.669Z,18.30
2023-01-18T16:25:25.411Z,16.90
2023-01-18T16:28:03.505Z,18.40
2023-01-18T16:30:38.044Z,16.20
2023-01-18T17:36:26.398Z,28.30
2023-01-18T17:40:44.071Z,25.40
2023-01-18T17:44:37.635Z,24.80
2023-01-18T18:39:16.137Z,32.00
2023-01-18T18:59:35.335Z,29.20
2023-01-18T19:03:10.095Z,30.50
2023-01-18T19:05:56.003Z,30.30
2023-01-18T19:08:31.371Z,30.90
2023-01-18T19:11:22.347Z,30.90
2023-01-18T20:35:51.366Z,36.30
2023-01-18T20:39:06.067Z,39.70
2023-01-18T22:00:09.232Z,34.70
2023-01-18T22:00:55.698Z,33.90
2023-01-18T22:04:24.237Z,31.60
2023-01-18T22:19:19.856Z,30.70
2023-01-18T22:22:17.465Z,30.90
2023-01-18T22:24:46.058Z,31.70
2023-01-18T22:27:14.643Z,29.90
2023-01-18T22:29:43.105Z,35.90
2023-01-18T22:53:29.433Z,31.00
2023-01-18T23:00:48.862Z,31.40
2023-01-18T23:03:39.113Z,35.00
2023-01-18T23:04:00.690Z,29.60
2023-01-18T23:06:25.748Z,31.40
2023-01-18T23:09:14.352Z,31.10
2023-01-18T23:12:01.559Z,34.60
2023-01-18T23:15:38.471Z,29.90
2023-01-18T23:22:31.931Z,33.90
2023-01-18T23:25:32.404Z,32.40
2023-01-18T23:32:55.292Z,33.70
2023-01-18T23:46:02.256Z,34.90
2023-01-18T23:49:17.295Z,31.90
2023-01-18T23:52:30.636Z,32.90
2023-01-18T23:55:57.931Z,32.90
2023-01-18T23:58:57.849Z,33.80
